Time;durP1;ratioP1;P1;durP2;ratioP2;P2;SDS_P1;SDS_P2;PMS_P1;PMS_P2;Temp;Humidity;BMP_temperature;BMP_pressure;BME280_temperature;BME280_humidity;BME280_pressure;Samples;Min_cycle;Max_cycle;Signal;HPM_P1;HPM_P2
2022/04/23 00:00:04;;;;;;;;;;;;;;;;;;341980;29;811;-75
2022/04/23 00:00:14;;;;;;;;;;;;;;;;;;341913;29;921;-75
2022/04/23 00:00:24;;;;;;;;;;;;;;;;;;342015;29;905;-75
2022/04/23 00:00:35;;;;;;;;;;;;;;;;;;341903;29;990;-75
2022/04/23 00:00:45;;;;;;;;;;;;;;;;;;341969;29;933;-76
2022/04/23 00:00:55;;;;;;;;;;;;;;;;;;342023;29;778;-75
2022/04/23 00:01:06;;;;;;;;;;;;;;;;;;341878;29;806;-75
2022/04/23 00:01:17;;;;;;;;;;;;;;;;;;341988;29;813;-75
2022/04/23 00:01:27;;;;;;;;;;;;;;;;;;341987;29;890;-75
2022/04/23 00:01:37;;;;;;;;;;;;;;;;;;341979;29;917;-75
2022/04/23 00:01:47;;;;;;;;;;;;;;;;;;341985;29;967;-76
2022/04/23 00:01:58;;;;;;;;;;;;;;;;;;341933;29;933;-75
2022/04/23 00:02:11;;;;;;;;;;;;;;;;;;341682;29;933;-75
2022/04/23 00:02:21;;;;;;;;;;;;;;;;;;341958;29;925;-75
2022/04/23 00:02:31;;;;;;;;;;;;;;;;;;341871;29;873;-75
2022/04/23 00:02:42;;;;;;;;;;;;;;;;;;341832;29;1910;-75
2022/04/23 00:02:52;;;;;;;;;;;;;;;;;;341900;29;913;-75
2022/04/23 00:03:03;;;;;;;;;;;;;;;;;;342004;29;960;-76
2022/04/23 00:03:13;;;;;;;;;;;;;;;;;;341965;29;921;-75
2022/04/23 00:03:24;;;;;;;;;;;;;;;;;;342011;29;791;-75
2022/04/23 00:03:34;;;;;;;;;;;;;;;;;;341952;29;941;-75
2022/04/23 00:03:45;;;;;;;;;;;;;;;;;;341794;29;969;-75
2022/04/23 00:03:55;;;;;;;;;;;;;;;;;;341985;29;960;-75
2022/04/23 00:04:05;;;;;;;;;;;;;;;;;;340366;29;1374;-75
2022/04/23 00:04:15;;;;;;;;;;;;;;;;;;339893;29;1359;-75
2022/04/23 00:04:26;;;;;;;;;;;;;;;;;;342994;28;1606;-75
2022/04/23 00:04:36;;;;;;;;;;;;;;;;;;343123;28;1022;-75
2022/04/23 00:04:47;;;;;;;;;;;;;;;;;;341060;28;1402;-75
2022/04/23 00:04:57;;;;;;;;;;;;;;;;;;340788;29;1378;-75
2022/04/23 00:05:08;;;;;;;;;;;;;;;;;;341106;29;1509;-75
2022/04/23 00:05:18;;;;;;;;;;;;;;;;;;341426;28;1255;-75
2022/04/23 00:05:29;;;;;;;;;;;;;;;;;;341787;29;1021;-75
2022/04/23 00:05:39;;;;;;;;;;;;;;;;;;341898;29;1032;-75
2022/04/23 00:05:49;;;;;;;;;;;;;;;;;;341945;29;861;-75
2022/04/23 00:05:59;;;;;;;;;;;;;;;;;;341992;29;909;-75
2022/04/23 00:06:10;;;;;;;;;;;;;;;;;;342000;29;1005;-75
2022/04/23 00:06:20;;;;;;;;;;;;;;;;;;341840;29;980;-75
2022/04/23 00:06:30;;;;;;;;;;;;;;;;;;341977;29;906;-76
2022/04/23 00:06:43;;;;;;;;;;;;;;;;;;341988;29;881;-75
2022/04/23 00:06:53;;;;;;;;;;;;;;;;;;340456;29;1358;-75
2022/04/23 00:07:05;;;;;;;;;;;;;;;;;;341915;29;966;-76
2022/04/23 00:07:15;;;;;;;;;;;;;;;;;;341926;29;1272;-75
2022/04/23 00:07:25;;;;;;;;;;;;;;;;;;340822;29;1355;-75
2022/04/23 00:07:36;;;;;;;;;;;;;;;;;;340165;29;1515;-76
2022/04/23 00:07:46;;;;;;;;;;;;;;;;;;341531;29;985;-75
2022/04/23 00:07:56;;;;;;;;;;;;;;;;;;341978;29;977;-75
2022/04/23 00:08:08;;;;;;;;;;;;;;;;;;341914;29;990;-75
2022/04/23 00:08:18;;;;;;;;;;;;;;;;;;341956;29;882;-75
2022/04/23 00:08:29;;;;;;;;;;;;;;;;;;343207;28;881;-75
2022/04/23 00:08:39;;;;;;;;;;;;;;;;;;343272;28;924;-76
2022/04/23 00:08:49;;;;;;;;;;;;;;;;;;341440;28;1435;-76
2022/04/23 00:09:00;;;;;;;;;;;;;;;;;;341765;29;1001;-75
2022/04/23 00:09:11;;;;;;;;;;;;;;;;;;341904;29;1029;-75
2022/04/23 00:09:21;;;;;;;;;;;;;;;;;;341977;29;957;-76
2022/04/23 00:09:32;;;;;;;;;;;;;;;;;;341994;29;880;-75
2022/04/23 00:09:43;;;;;;;;;;;;;;;;;;341734;28;1417;-75
2022/04/23 00:09:53;;;;;;;;;;;;;;;;;;341615;28;1381;-76
2022/04/23 00:10:04;;;;;;;;;;;;;;;;;;343041;28;1555;-75
2022/04/23 00:10:14;;;;;;;;;;;;;;;;;;343070;28;1019;-75
2022/04/23 00:10:25;;;;;;;;;;;;;;;;;;341983;29;818;-75
2022/04/23 00:10:35;;;;;;;;;;;;;;;;;;341817;29;1275;-76
2022/04/23 00:10:46;;;;;;;;;;;;;;;;;;340618;29;929;-75
2022/04/23 00:10:57;;;;;;;;;;;;;;;;;;340611;29;957;-75
2022/04/23 00:11:07;;;;;;;;;;;;;;;;;;340649;29;925;-75
2022/04/23 00:11:17;;;;;;;;;;;;;;;;;;340570;29;941;-75
2022/04/23 00:11:27;;;;;;;;;;;;;;;;;;340680;29;806;-76
2022/04/23 00:11:37;;;;;;;;;;;;;;;;;;340542;29;989;-75
2022/04/23 00:11:48;;;;;;;;;;;;;;;;;;340616;29;891;-75
2022/04/23 00:11:59;;;;;;;;;;;;;;;;;;340646;29;885;-75
2022/04/23 00:12:10;;;;;;;;;;;;;;;;;;340679;29;865;-75
2022/04/23 00:12:20;;;;;;;;;;;;;;;;;;340584;29;914;-75
2022/04/23 00:12:30;;;;;;;;;;;;;;;;;;340434;29;945;-75
2022/04/23 00:12:42;;;;;;;;;;;;;;;;;;340402;29;980;-75
2022/04/23 00:12:54;;;;;;;;;;;;;;;;;;340608;29;810;-75
2022/04/23 00:13:07;;;;;;;;;;;;;;;;;;340553;29;973;-75
2022/04/23 00:13:17;;;;;;;;;;;;;;;;;;340475;29;989;-75
2022/04/23 00:13:27;;;;;;;;;;;;;;;;;;340638;29;917;-75
2022/04/23 00:13:38;;;;;;;;;;;;;;;;;;340571;29;910;-75
2022/04/23 00:13:48;;;;;;;;;;;;;;;;;;340626;29;917;-75
2022/04/23 00:13:59;;;;;;;;;;;;;;;;;;340642;29;926;-75
2022/04/23 00:14:09;;;;;;;;;;;;;;;;;;340623;29;941;-75
2022/04/23 00:14:20;;;;;;;;;;;;;;;;;;340533;29;1005;-75
2022/04/23 00:14:31;;;;;;;;;;;;;;;;;;340640;29;838;-75
2022/04/23 00:14:42;;;;;;;;;;;;;;;;;;340573;29;929;-75
2022/04/23 00:14:53;;;;;;;;;;;;;;;;;;340495;29;996;-75
2022/04/23 00:15:05;;;;;;;;;;;;;;;;;;340595;29;954;-75
2022/04/23 00:15:16;;;;;;;;;;;;;;;;;;340630;29;857;-75
2022/04/23 00:15:27;;;;;;;;;;;;;;;;;;340643;29;946;-75
2022/04/23 00:15:38;;;;;;;;;;;;;;;;;;340539;29;895;-75
2022/04/23 00:15:48;;;;;;;;;;;;;;;;;;340589;29;1068;-75
2022/04/23 00:15:58;;;;;;;;;;;;;;;;;;340613;29;941;-75
2022/04/23 00:16:10;;;;;;;;;;;;;;;;;;340652;29;799;-75
2022/04/23 00:16:21;;;;;;;;;;;;;;;;;;340571;29;937;-75
2022/04/23 00:16:32;;;;;;;;;;;;;;;;;;340607;29;1052;-75
2022/04/23 00:16:42;;;;;;;;;;;;;;;;;;340448;29;1735;-75
2022/04/23 00:16:53;;;;;;;;;;;;;;;;;;340513;29;874;-76
2022/04/23 00:17:03;;;;;;;;;;;;;;;;;;340958;28;1445;-75
2022/04/23 00:17:14;;;;;;;;;;;;;;;;;;341946;29;989;-75
2022/04/23 00:17:24;;;;;;;;;;;;;;;;;;341978;29;1773;-75
2022/04/23 00:17:34;;;;;;;;;;;;;;;;;;341930;29;842;-75
2022/04/23 00:17:46;;;;;;;;;;;;;;;;;;341990;29;826;-75
2022/04/23 00:17:56;;;;;;;;;;;;;;;;;;341956;29;934;-75
2022/04/23 00:18:07;;;;;;;;;;;;;;;;;;341964;29;865;-75
2022/04/23 00:18:18;;;;;;;;;;;;;;;;;;341898;29;973;-75
2022/04/23 00:18:28;;;;;;;;;;;;;;;;;;341965;29;952;-75
2022/04/23 00:18:38;;;;;;;;;;;;;;;;;;341937;29;913;-75
2022/04/23 00:18:48;;;;;;;;;;;;;;;;;;341835;28;969;-75
2022/04/23 00:18:59;;;;;;;;;;;;;;;;;;341916;29;921;-75
2022/04/23 00:19:09;;;;;;;;;;;;;;;;;;341925;29;800;-75
2022/04/23 00:19:20;;;;;;;;;;;;;;;;;;341849;29;809;-75
2022/04/23 00:19:30;;;;;;;;;;;;;;;;;;341980;29;820;-75
2022/04/23 00:19:40;;;;;;;;;;;;;;;;;;341882;29;1029;-75
2022/04/23 00:19:51;;;;;;;;;;;;;;;;;;341885;29;917;-75
2022/04/23 00:20:01;;;;;;;;;;;;;;;;;;341940;29;801;-75
2022/04/23 00:20:12;;;;;;;;;;;;;;;;;;341911;29;1024;-75
2022/04/23 00:20:24;;;;;;;;;;;;;;;;;;341923;29;950;-75
2022/04/23 00:20:36;;;;;;;;;;;;;;;;;;341837;29;929;-75
2022/04/23 00:20:46;;;;;;;;;;;;;;;;;;341836;29;1077;-75
2022/04/23 00:20:57;;;;;;;;;;;;;;;;;;341611;29;1114;-75
2022/04/23 00:21:08;;;;;;;;;;;;;;;;;;341949;29;999;-75
2022/04/23 00:21:18;;;;;;;;;;;;;;;;;;341917;29;874;-75
2022/04/23 00:21:28;;;;;;;;;;;;;;;;;;341978;29;890;-76
2022/04/23 00:21:39;;;;;;;;;;;;;;;;;;341978;29;858;-75
2022/04/23 00:21:49;;;;;;;;;;;;;;;;;;341673;29;1162;-76
2022/04/23 00:21:59;;;;;;;;;;;;;;;;;;341940;29;1001;-76
2022/04/23 00:22:09;;;;;;;;;;;;;;;;;;341697;29;1022;-75
2022/04/23 00:22:19;;;;;;;;;;;;;;;;;;341930;29;867;-76
2022/04/23 00:22:30;;;;;;;;;;;;;;;;;;341945;29;972;-75
2022/04/23 00:22:40;;;;;;;;;;;;;;;;;;341744;29;1018;-75
2022/04/23 00:22:50;;;;;;;;;;;;;;;;;;341941;29;874;-75
2022/04/23 00:23:02;;;;;;;;;;;;;;;;;;341905;29;906;-75
2022/04/23 00:23:13;;;;;;;;;;;;;;;;;;341913;29;941;-75
2022/04/23 00:23:23;;;;;;;;;;;;;;;;;;341976;29;799;-75
2022/04/23 00:23:34;;;;;;;;;;;;;;;;;;341843;29;926;-76
2022/04/23 00:23:46;;;;;;;;;;;;;;;;;;341894;29;1177;-75
2022/04/23 00:23:56;;;;;;;;;;;;;;;;;;341925;29;1071;-75
2022/04/23 00:24:06;;;;;;;;;;;;;;;;;;341934;29;973;-75
2022/04/23 00:24:17;;;;;;;;;;;;;;;;;;341957;29;945;-75
2022/04/23 00:24:27;;;;;;;;;;;;;;;;;;341787;29;1378;-75
2022/04/23 00:24:37;;;;;;;;;;;;;;;;;;341238;29;1790;-75
2022/04/23 00:24:47;;;;;;;;;;;;;;;;;;342835;28;1625;-75
2022/04/23 00:24:58;;;;;;;;;;;;;;;;;;343056;28;1169;-75
2022/04/23 00:25:08;;;;;;;;;;;;;;;;;;341967;28;850;-75
2022/04/23 00:25:18;;;;;;;;;;;;;;;;;;341936;29;926;-75
2022/04/23 00:25:29;;;;;;;;;;;;;;;;;;341933;29;803;-75
2022/04/23 00:25:39;;;;;;;;;;;;;;;;;;341953;29;898;-76
2022/04/23 00:25:52;;;;;;;;;;;;;;;;;;341941;29;980;-75
2022/04/23 00:26:02;;;;;;;;;;;;;;;;;;341929;29;921;-75
2022/04/23 00:26:13;;;;;;;;;;;;;;;;;;341880;29;796;-75
2022/04/23 00:26:23;;;;;;;;;;;;;;;;;;341934;29;799;-75
2022/04/23 00:26:33;;;;;;;;;;;;;;;;;;341949;29;973;-75
2022/04/23 00:26:44;;;;;;;;;;;;;;;;;;341903;29;973;-75
2022/04/23 00:26:54;;;;;;;;;;;;;;;;;;341971;29;925;-75
2022/04/23 00:27:04;;;;;;;;;;;;;;;;;;341862;29;910;-75
2022/04/23 00:27:14;;;;;;;;;;;;;;;;;;341790;29;815;-75
2022/04/23 00:27:25;;;;;;;;;;;;;;;;;;341073;29;1423;-75
2022/04/23 00:27:35;;;;;;;;;;;;;;;;;;340630;29;981;-75
2022/04/23 00:27:45;;;;;;;;;;;;;;;;;;340593;29;1001;-75
2022/04/23 00:27:56;;;;;;;;;;;;;;;;;;340525;29;928;-75
2022/04/23 00:28:06;;;;;;;;;;;;;;;;;;340650;29;997;-75
2022/04/23 00:28:17;;;;;;;;;;;;;;;;;;340571;29;784;-75
2022/04/23 00:28:27;;;;;;;;;;;;;;;;;;340635;29;941;-75
2022/04/23 00:28:38;;;;;;;;;;;;;;;;;;340495;29;930;-75
2022/04/23 00:28:48;;;;;;;;;;;;;;;;;;340640;29;858;-75
2022/04/23 00:28:58;;;;;;;;;;;;;;;;;;340626;29;949;-75
2022/04/23 00:29:08;;;;;;;;;;;;;;;;;;340480;29;862;-76
2022/04/23 00:29:19;;;;;;;;;;;;;;;;;;340518;29;973;-76
2022/04/23 00:29:29;;;;;;;;;;;;;;;;;;340195;29;1405;-75
2022/04/23 00:29:39;;;;;;;;;;;;;;;;;;341524;29;1682;-75
2022/04/23 00:29:50;;;;;;;;;;;;;;;;;;343228;28;791;-76
2022/04/23 00:30:00;;;;;;;;;;;;;;;;;;342858;28;1043;-75
2022/04/23 00:30:11;;;;;;;;;;;;;;;;;;341922;29;978;-75
2022/04/23 00:30:21;;;;;;;;;;;;;;;;;;341932;29;974;-76
2022/04/23 00:30:31;;;;;;;;;;;;;;;;;;341919;29;1025;-75
2022/04/23 00:30:41;;;;;;;;;;;;;;;;;;341757;29;990;-75
2022/04/23 00:30:52;;;;;;;;;;;;;;;;;;341957;29;847;-75
2022/04/23 00:31:04;;;;;;;;;;;;;;;;;;341966;29;898;-75
2022/04/23 00:31:14;;;;;;;;;;;;;;;;;;341888;29;988;-76
2022/04/23 00:31:26;;;;;;;;;;;;;;;;;;341860;29;819;-75
2022/04/23 00:31:36;;;;;;;;;;;;;;;;;;341927;29;913;-75
2022/04/23 00:31:47;;;;;;;;;;;;;;;;;;341914;29;918;-75
2022/04/23 00:31:57;;;;;;;;;;;;;;;;;;341945;29;1209;-75
2022/04/23 00:32:07;;;;;;;;;;;;;;;;;;341890;29;843;-75
2022/04/23 00:32:18;;;;;;;;;;;;;;;;;;341870;29;1211;-75
2022/04/23 00:32:29;;;;;;;;;;;;;;;;;;341938;29;921;-75
2022/04/23 00:32:39;;;;;;;;;;;;;;;;;;341721;29;823;-75
2022/04/23 00:32:50;;;;;;;;;;;;;;;;;;341899;29;953;-75
2022/04/23 00:33:00;;;;;;;;;;;;;;;;;;341717;29;1021;-75
2022/04/23 00:33:11;;;;;;;;;;;;;;;;;;341999;29;791;-75
2022/04/23 00:33:21;;;;;;;;;;;;;;;;;;341842;29;986;-75
2022/04/23 00:33:38;;;;;;;;;;;;;;;;;;341854;29;980;-75
2022/04/23 00:33:48;;;;;;;;;;;;;;;;;;341945;29;933;-75
2022/04/23 00:33:58;;;;;;;;;;;;;;;;;;341950;29;898;-75
2022/04/23 00:34:09;;;;;;;;;;;;;;;;;;341961;29;901;-75
2022/04/23 00:34:19;;;;;;;;;;;;;;;;;;341867;29;791;-76
2022/04/23 00:34:29;;;;;;;;;;;;;;;;;;341231;29;1471;-76
2022/04/23 00:34:39;;;;;;;;;;;;;;;;;;341316;29;1791;-76
2022/04/23 00:34:49;;;;;;;;;;;;;;;;;;341918;29;879;-76
2022/04/23 00:35:00;;;;;;;;;;;;;;;;;;340674;28;1498;-75
2022/04/23 00:35:13;;;;;;;;;;;;;;;;;;341932;29;855;-75
2022/04/23 00:35:24;;;;;;;;;;;;;;;;;;341900;29;830;-75
2022/04/23 00:35:34;;;;;;;;;;;;;;;;;;341894;29;977;-75
2022/04/23 00:35:44;;;;;;;;;;;;;;;;;;341885;29;902;-75
2022/04/23 00:35:54;;;;;;;;;;;;;;;;;;341794;29;922;-75
2022/04/23 00:36:05;;;;;;;;;;;;;;;;;;341934;29;1030;-75
2022/04/23 00:36:16;;;;;;;;;;;;;;;;;;341884;29;1037;-75
2022/04/23 00:36:28;;;;;;;;;;;;;;;;;;341805;29;1008;-75
2022/04/23 00:36:38;;;;;;;;;;;;;;;;;;341966;29;811;-75
2022/04/23 00:36:48;;;;;;;;;;;;;;;;;;341985;29;795;-76
2022/04/23 00:36:59;;;;;;;;;;;;;;;;;;341934;29;922;-75
2022/04/23 00:37:10;;;;;;;;;;;;;;;;;;341933;29;871;-75
2022/04/23 00:37:20;;;;;;;;;;;;;;;;;;341868;29;942;-75
2022/04/23 00:37:30;;;;;;;;;;;;;;;;;;341916;29;913;-75
2022/04/23 00:37:41;;;;;;;;;;;;;;;;;;341796;29;895;-75
2022/04/23 00:37:52;;;;;;;;;;;;;;;;;;341865;29;986;-75
2022/04/23 00:38:07;;;;;;;;;;;;;;;;;;341026;29;1453;-75
2022/04/23 00:38:18;;;;;;;;;;;;;;;;;;341895;29;1031;-75
2022/04/23 00:38:28;;;;;;;;;;;;;;;;;;341917;29;870;-76
2022/04/23 00:38:40;;;;;;;;;;;;;;;;;;341931;29;830;-75
2022/04/23 00:38:52;;;;;;;;;;;;;;;;;;341948;29;1191;-76
2022/04/23 00:39:05;;;;;;;;;;;;;;;;;;341945;29;889;-75
2022/04/23 00:39:15;;;;;;;;;;;;;;;;;;341965;29;888;-75
2022/04/23 00:39:25;;;;;;;;;;;;;;;;;;341880;29;985;-75
2022/04/23 00:39:35;;;;;;;;;;;;;;;;;;341925;29;830;-75
2022/04/23 00:39:46;;;;;;;;;;;;;;;;;;341908;29;1009;-75
2022/04/23 00:39:56;;;;;;;;;;;;;;;;;;341947;29;980;-75
2022/04/23 00:40:07;;;;;;;;;;;;;;;;;;341790;29;892;-75
2022/04/23 00:40:17;;;;;;;;;;;;;;;;;;341945;29;945;-75
2022/04/23 00:40:28;;;;;;;;;;;;;;;;;;341735;29;1002;-75
2022/04/23 00:40:40;;;;;;;;;;;;;;;;;;341933;29;1012;-76
2022/04/23 00:40:50;;;;;;;;;;;;;;;;;;341883;29;938;-75
2022/04/23 00:41:00;;;;;;;;;;;;;;;;;;341930;29;765;-75
2022/04/23 00:41:45;;;;;;;;;;;;;;;;;;340823;29;1384;-75
2022/04/23 00:41:45;;;;;;;;;;;;;;;;;;341848;29;992;-75
2022/04/23 00:41:59;;;;;;;;;;;;;;;;;;341792;29;1045;-75
2022/04/23 00:42:09;;;;;;;;;;;;;;;;;;341877;29;937;-75
2022/04/23 00:42:19;;;;;;;;;;;;;;;;;;341941;29;1025;-75
2022/04/23 00:42:30;;;;;;;;;;;;;;;;;;341842;29;937;-75
2022/04/23 00:42:51;;;;;;;;;;;;;;;;;;341936;29;877;-75
2022/04/23 00:43:05;;;;;;;;;;;;;;;;;;341911;29;977;-75
2022/04/23 00:43:33;;;;;;;;;;;;;;;;;;341759;29;1052;-75
2022/04/23 00:43:47;;;;;;;;;;;;;;;;;;341880;29;941;-75
2022/04/23 00:43:57;;;;;;;;;;;;;;;;;;341791;29;898;-75
2022/04/23 00:44:08;;;;;;;;;;;;;;;;;;341890;29;870;-75
2022/04/23 00:44:18;;;;;;;;;;;;;;;;;;341500;28;1411;-75
2022/04/23 00:44:28;;;;;;;;;;;;;;;;;;342267;28;1618;-76
2022/04/23 00:44:39;;;;;;;;;;;;;;;;;;343264;28;929;-75
2022/04/23 00:44:49;;;;;;;;;;;;;;;;;;342372;28;918;-75
2022/04/23 00:44:59;;;;;;;;;;;;;;;;;;341871;29;981;-76
2022/04/23 00:45:09;;;;;;;;;;;;;;;;;;341954;29;799;-75
2022/04/23 00:45:20;;;;;;;;;;;;;;;;;;341920;29;973;-75
2022/04/23 00:45:30;;;;;;;;;;;;;;;;;;341920;29;802;-75
2022/04/23 00:45:41;;;;;;;;;;;;;;;;;;341957;29;925;-75
2022/04/23 00:45:52;;;;;;;;;;;;;;;;;;341825;29;941;-75
2022/04/23 00:46:03;;;;;;;;;;;;;;;;;;341949;29;886;-75
2022/04/23 00:46:13;;;;;;;;;;;;;;;;;;341947;29;771;-76
2022/04/23 00:46:24;;;;;;;;;;;;;;;;;;341931;29;805;-75
2022/04/23 00:46:34;;;;;;;;;;;;;;;;;;341850;29;1013;-75
2022/04/23 00:46:45;;;;;;;;;;;;;;;;;;341857;29;965;-75
2022/04/23 00:46:55;;;;;;;;;;;;;;;;;;341902;29;985;-75
2022/04/23 00:47:05;;;;;;;;;;;;;;;;;;341679;29;1214;-75
2022/04/23 00:47:16;;;;;;;;;;;;;;;;;;341961;29;775;-75
2022/04/23 00:47:26;;;;;;;;;;;;;;;;;;341929;29;956;-75
2022/04/23 00:47:36;;;;;;;;;;;;;;;;;;341638;29;1003;-75
2022/04/23 00:47:47;;;;;;;;;;;;;;;;;;341908;29;976;-75
2022/04/23 00:47:57;;;;;;;;;;;;;;;;;;341862;29;918;-75
2022/04/23 00:48:07;;;;;;;;;;;;;;;;;;341935;29;901;-75
2022/04/23 00:48:18;;;;;;;;;;;;;;;;;;341942;29;874;-75
2022/04/23 00:48:28;;;;;;;;;;;;;;;;;;341728;29;1177;-75
2022/04/23 00:48:39;;;;;;;;;;;;;;;;;;341903;29;788;-75
2022/04/23 00:48:49;;;;;;;;;;;;;;;;;;341951;29;846;-75
2022/04/23 00:48:59;;;;;;;;;;;;;;;;;;341815;29;1016;-75
2022/04/23 00:49:10;;;;;;;;;;;;;;;;;;341900;29;961;-75
2022/04/23 00:49:20;;;;;;;;;;;;;;;;;;341854;29;994;-75
2022/04/23 00:49:30;;;;;;;;;;;;;;;;;;341860;29;918;-75
2022/04/23 00:49:40;;;;;;;;;;;;;;;;;;341901;29;858;-75
2022/04/23 00:49:52;;;;;;;;;;;;;;;;;;341933;29;846;-75
2022/04/23 00:50:03;;;;;;;;;;;;;;;;;;341839;29;933;-75
2022/04/23 00:50:13;;;;;;;;;;;;;;;;;;341930;29;783;-76
2022/04/23 00:50:23;;;;;;;;;;;;;;;;;;341639;28;1402;-75
2022/04/23 00:50:33;;;;;;;;;;;;;;;;;;341781;28;1572;-76
2022/04/23 00:50:44;;;;;;;;;;;;;;;;;;343238;28;836;-75
2022/04/23 00:50:55;;;;;;;;;;;;;;;;;;342386;28;874;-75
2022/04/23 00:51:06;;;;;;;;;;;;;;;;;;341869;29;909;-75
2022/04/23 00:51:16;;;;;;;;;;;;;;;;;;341937;29;878;-75
2022/04/23 00:51:30;;;;;;;;;;;;;;;;;;341944;29;885;-75
2022/04/23 00:51:41;;;;;;;;;;;;;;;;;;341806;29;934;-75
2022/04/23 00:51:52;;;;;;;;;;;;;;;;;;341940;29;930;-75
2022/04/23 00:52:02;;;;;;;;;;;;;;;;;;341871;29;961;-75
2022/04/23 00:52:13;;;;;;;;;;;;;;;;;;341342;29;1065;-75
2022/04/23 00:52:24;;;;;;;;;;;;;;;;;;341958;29;851;-75
2022/04/23 00:52:35;;;;;;;;;;;;;;;;;;341861;29;988;-75
2022/04/23 00:52:45;;;;;;;;;;;;;;;;;;341897;29;953;-75
2022/04/23 00:53:01;;;;;;;;;;;;;;;;;;341788;29;1048;-76
2022/04/23 00:53:11;;;;;;;;;;;;;;;;;;341879;29;1019;-75
2022/04/23 00:53:23;;;;;;;;;;;;;;;;;;341856;29;930;-75
2022/04/23 00:53:33;;;;;;;;;;;;;;;;;;341901;29;892;-75
2022/04/23 00:53:45;;;;;;;;;;;;;;;;;;341882;29;953;-75
2022/04/23 00:53:56;;;;;;;;;;;;;;;;;;341863;29;1000;-75
2022/04/23 00:54:09;;;;;;;;;;;;;;;;;;341908;29;976;-75
2022/04/23 00:54:22;;;;;;;;;;;;;;;;;;341816;29;788;-75
2022/04/23 00:54:33;;;;;;;;;;;;;;;;;;341866;29;989;-75
2022/04/23 00:54:44;;;;;;;;;;;;;;;;;;341879;29;994;-75
2022/04/23 00:54:54;;;;;;;;;;;;;;;;;;341934;29;837;-76
2022/04/23 00:55:05;;;;;;;;;;;;;;;;;;341840;29;1053;-75
2022/04/23 00:55:16;;;;;;;;;;;;;;;;;;341928;29;830;-76
2022/04/23 00:55:27;;;;;;;;;;;;;;;;;;341856;29;914;-75
2022/04/23 00:55:38;;;;;;;;;;;;;;;;;;341866;29;968;-76
2022/04/23 00:55:49;;;;;;;;;;;;;;;;;;341810;29;973;-75
2022/04/23 00:56:00;;;;;;;;;;;;;;;;;;341859;29;937;-76
2022/04/23 00:56:10;;;;;;;;;;;;;;;;;;341876;29;866;-75
2022/04/23 00:56:22;;;;;;;;;;;;;;;;;;341830;29;958;-75
2022/04/23 00:56:33;;;;;;;;;;;;;;;;;;341063;29;1403;-75
2022/04/23 00:56:43;;;;;;;;;;;;;;;;;;341873;29;973;-75
2022/04/23 00:56:53;;;;;;;;;;;;;;;;;;341878;29;906;-75
2022/04/23 00:57:04;;;;;;;;;;;;;;;;;;341838;29;847;-75
2022/04/23 00:57:15;;;;;;;;;;;;;;;;;;341916;29;918;-76
2022/04/23 00:57:25;;;;;;;;;;;;;;;;;;341902;29;729;-75
2022/04/23 00:57:35;;;;;;;;;;;;;;;;;;341794;29;1057;-75
2022/04/23 00:57:46;;;;;;;;;;;;;;;;;;341917;29;815;-75
2022/04/23 00:57:57;;;;;;;;;;;;;;;;;;341887;29;929;-75
2022/04/23 00:58:07;;;;;;;;;;;;;;;;;;341847;29;865;-75
2022/04/23 00:58:18;;;;;;;;;;;;;;;;;;341929;29;787;-75
2022/04/23 00:58:28;;;;;;;;;;;;;;;;;;341864;29;862;-76
2022/04/23 00:58:39;;;;;;;;;;;;;;;;;;341851;29;992;-75
2022/04/23 00:58:49;;;;;;;;;;;;;;;;;;341844;29;1053;-75
2022/04/23 00:59:01;;;;;;;;;;;;;;;;;;341880;29;1017;-75
2022/04/23 00:59:12;;;;;;;;;;;;;;;;;;341820;29;1076;-75
2022/04/23 00:59:22;;;;;;;;;;;;;;;;;;341870;29;954;-75
2022/04/23 00:59:33;;;;;;;;;;;;;;;;;;341904;29;914;-75
2022/04/23 00:59:44;;;;;;;;;;;;;;;;;;341046;28;1451;-75
2022/04/23 00:59:54;;;;;;;;;;;;;;;;;;342223;28;1495;-75
2022/04/23 01:00:06;;;;;;;;;;;;;;;;;;343224;28;905;-75
2022/04/23 01:00:18;;;;;;;;;;;;;;;;;;342156;28;963;-76
2022/04/23 01:00:28;;;;;;;;;;;;;;;;;;341823;29;913;-75
2022/04/23 01:00:40;;;;;;;;;;;;;;;;;;341868;29;984;-75
2022/04/23 01:00:51;;;;;;;;;;;;;;;;;;341861;29;878;-75
2022/04/23 01:01:01;;;;;;;;;;;;;;;;;;341877;29;937;-75
2022/04/23 01:01:11;;;;;;;;;;;;;;;;;;341913;29;977;-75
2022/04/23 01:01:23;;;;;;;;;;;;;;;;;;341779;29;906;-75
2022/04/23 01:01:34;;;;;;;;;;;;;;;;;;341911;29;945;-75
2022/04/23 01:01:45;;;;;;;;;;;;;;;;;;341257;28;1417;-76
2022/04/23 01:01:55;;;;;;;;;;;;;;;;;;342094;28;1456;-75
2022/04/23 01:02:07;;;;;;;;;;;;;;;;;;343240;28;790;-75
2022/04/23 01:02:18;;;;;;;;;;;;;;;;;;342354;28;783;-75
2022/04/23 01:02:28;;;;;;;;;;;;;;;;;;341838;29;792;-75
2022/04/23 01:02:38;;;;;;;;;;;;;;;;;;341873;29;921;-75
2022/04/23 01:02:49;;;;;;;;;;;;;;;;;;341706;29;1973;-75
2022/04/23 01:02:59;;;;;;;;;;;;;;;;;;341805;29;921;-75
2022/04/23 01:03:12;;;;;;;;;;;;;;;;;;341916;29;854;-75
2022/04/23 01:03:22;;;;;;;;;;;;;;;;;;341925;29;969;-75
2022/04/23 01:03:33;;;;;;;;;;;;;;;;;;340284;28;1913;-75
2022/04/23 01:03:43;;;;;;;;;;;;;;;;;;341985;28;1495;-75
2022/04/23 01:03:53;;;;;;;;;;;;;;;;;;343202;28;930;-75
2022/04/23 01:04:05;;;;;;;;;;;;;;;;;;342407;28;1259;-75
2022/04/23 01:04:16;;;;;;;;;;;;;;;;;;343251;28;993;-75
2022/04/23 01:04:28;;;;;;;;;;;;;;;;;;343249;28;941;-75
2022/04/23 01:04:38;;;;;;;;;;;;;;;;;;343148;28;988;-75
2022/04/23 01:04:49;;;;;;;;;;;;;;;;;;343095;28;1125;-75
2022/04/23 01:04:59;;;;;;;;;;;;;;;;;;341266;28;1425;-75
2022/04/23 01:05:10;;;;;;;;;;;;;;;;;;341038;29;1427;-76
2022/04/23 01:05:23;;;;;;;;;;;;;;;;;;341766;29;1649;-75
2022/04/23 01:05:34;;;;;;;;;;;;;;;;;;341066;28;1189;-75
2022/04/23 01:05:46;;;;;;;;;;;;;;;;;;341882;29;917;-75
2022/04/23 01:05:56;;;;;;;;;;;;;;;;;;341868;29;973;-75
2022/04/23 01:06:06;;;;;;;;;;;;;;;;;;341817;29;998;-75
2022/04/23 01:06:17;;;;;;;;;;;;;;;;;;341851;29;974;-75
2022/04/23 01:06:29;;;;;;;;;;;;;;;;;;341909;29;765;-75
2022/04/23 01:06:39;;;;;;;;;;;;;;;;;;341113;29;1380;-75
2022/04/23 01:06:49;;;;;;;;;;;;;;;;;;341614;29;1583;-75
2022/04/23 01:06:59;;;;;;;;;;;;;;;;;;341739;29;1005;-75
2022/04/23 01:07:12;;;;;;;;;;;;;;;;;;341846;29;815;-75
2022/04/23 01:07:23;;;;;;;;;;;;;;;;;;341807;29;942;-76
2022/04/23 01:07:38;;;;;;;;;;;;;;;;;;341912;29;1070;-75
2022/04/23 01:07:48;;;;;;;;;;;;;;;;;;341853;29;925;-75
2022/04/23 01:08:02;;;;;;;;;;;;;;;;;;341346;29;1394;-75
2022/04/23 01:08:14;;;;;;;;;;;;;;;;;;342863;28;1005;-75
2022/04/23 01:08:26;;;;;;;;;;;;;;;;;;343173;28;872;-75
2022/04/23 01:08:37;;;;;;;;;;;;;;;;;;343239;28;991;-75
2022/04/23 01:08:47;;;;;;;;;;;;;;;;;;343169;28;822;-75
2022/04/23 01:08:58;;;;;;;;;;;;;;;;;;343230;28;924;-75
2022/04/23 01:09:09;;;;;;;;;;;;;;;;;;343197;28;830;-75
2022/04/23 01:09:20;;;;;;;;;;;;;;;;;;343242;28;1011;-75
2022/04/23 01:09:30;;;;;;;;;;;;;;;;;;343244;28;1000;-75
2022/04/23 01:09:44;;;;;;;;;;;;;;;;;;343213;28;949;-75
2022/04/23 01:09:54;;;;;;;;;;;;;;;;;;343194;28;874;-75
2022/04/23 01:10:08;;;;;;;;;;;;;;;;;;343175;28;882;-75
2022/04/23 01:10:19;;;;;;;;;;;;;;;;;;343219;28;933;-75
2022/04/23 01:10:29;;;;;;;;;;;;;;;;;;340709;28;1366;-75
2022/04/23 01:10:40;;;;;;;;;;;;;;;;;;341323;28;1486;-75
2022/04/23 01:10:52;;;;;;;;;;;;;;;;;;341757;29;973;-75
2022/04/23 01:11:02;;;;;;;;;;;;;;;;;;341927;28;788;-75
2022/04/23 01:11:12;;;;;;;;;;;;;;;;;;341924;29;925;-75
2022/04/23 01:11:23;;;;;;;;;;;;;;;;;;341871;29;921;-75
2022/04/23 01:11:33;;;;;;;;;;;;;;;;;;341871;29;972;-75
2022/04/23 01:11:43;;;;;;;;;;;;;;;;;;341890;29;862;-75
2022/04/23 01:11:54;;;;;;;;;;;;;;;;;;341934;29;853;-75
2022/04/23 01:12:05;;;;;;;;;;;;;;;;;;341860;29;866;-75
2022/04/23 01:12:16;;;;;;;;;;;;;;;;;;341852;29;910;-75
2022/04/23 01:12:28;;;;;;;;;;;;;;;;;;341905;29;1019;-75
2022/04/23 01:12:38;;;;;;;;;;;;;;;;;;341898;29;858;-76
2022/04/23 01:12:48;;;;;;;;;;;;;;;;;;341850;29;807;-75
2022/04/23 01:12:59;;;;;;;;;;;;;;;;;;341788;29;1244;-75
2022/04/23 01:13:10;;;;;;;;;;;;;;;;;;341818;29;996;-75
2022/04/23 01:13:21;;;;;;;;;;;;;;;;;;341832;29;981;-75
2022/04/23 01:13:32;;;;;;;;;;;;;;;;;;341865;29;829;-75
2022/04/23 01:13:44;;;;;;;;;;;;;;;;;;340508;29;1383;-75
2022/04/23 01:13:55;;;;;;;;;;;;;;;;;;341213;29;1418;-75
2022/04/23 01:14:05;;;;;;;;;;;;;;;;;;343039;28;1009;-75
2022/04/23 01:14:18;;;;;;;;;;;;;;;;;;342418;28;965;-75
2022/04/23 01:14:28;;;;;;;;;;;;;;;;;;341714;28;1374;-76
2022/04/23 01:14:57;;;;;;;;;;;;;;;;;;342940;28;1563;-75
2022/04/23 01:15:08;;;;;;;;;;;;;;;;;;340438;29;988;-75
2022/04/23 01:15:18;;;;;;;;;;;;;;;;;;340562;29;997;-75
2022/04/23 01:15:28;;;;;;;;;;;;;;;;;;340552;29;942;-75
2022/04/23 01:15:39;;;;;;;;;;;;;;;;;;340587;29;858;-75
2022/04/23 01:15:59;;;;;;;;;;;;;;;;;;340515;29;992;-75
2022/04/23 01:16:10;;;;;;;;;;;;;;;;;;340556;29;926;-75
2022/04/23 01:16:20;;;;;;;;;;;;;;;;;;340547;29;831;-75
2022/04/23 01:16:30;;;;;;;;;;;;;;;;;;340501;29;927;-76
2022/04/23 01:16:42;;;;;;;;;;;;;;;;;;340474;29;929;-75
2022/04/23 01:16:52;;;;;;;;;;;;;;;;;;340446;29;950;-76
2022/04/23 01:17:03;;;;;;;;;;;;;;;;;;340390;29;970;-75
2022/04/23 01:17:13;;;;;;;;;;;;;;;;;;340310;29;941;-76
2022/04/23 01:17:24;;;;;;;;;;;;;;;;;;340563;29;969;-75
2022/04/23 01:17:34;;;;;;;;;;;;;;;;;;340209;29;1353;-75
2022/04/23 01:17:47;;;;;;;;;;;;;;;;;;340801;29;1579;-75
2022/04/23 01:17:57;;;;;;;;;;;;;;;;;;340966;28;1391;-75
2022/04/23 01:18:07;;;;;;;;;;;;;;;;;;342254;28;941;-75
2022/04/23 01:18:17;;;;;;;;;;;;;;;;;;341876;29;906;-75